createdAt,value
2023-01-25T00:00:00.777Z,23
2023-01-25T00:05:00.839Z,22
2023-01-25T00:10:00.838Z,22
2023-01-25T00:15:00.735Z,22
2023-01-25T00:20:00.621Z,22
2023-01-25T00:25:00.351Z,22
2023-01-25T00:30:00.830Z,22
2023-01-25T00:35:00.506Z,22
2023-01-25T00:40:00.338Z,22
2023-01-25T00:45:00.592Z,22
2023-01-25T00:50:00.454Z,22
2023-01-25T00:55:00.862Z,22
2023-01-25T01:00:00.372Z,22
2023-01-25T01:05:00.597Z,22
2023-01-25T01:10:00.570Z,22
2023-01-25T01:15:00.442Z,22
2023-01-25T01:20:00.534Z,22
2023-01-25T01:25:00.561Z,21
2023-01-25T01:30:00.491Z,21
2023-01-25T01:35:00.407Z,22
2023-01-25T01:40:00.317Z,22
2023-01-25T01:45:00.166Z,21
2023-01-25T01:50:00.507Z,22
2023-01-25T01:55:02.354Z,22
2023-01-25T02:00:00.384Z,22
2023-01-25T02:05:00.406Z,22
2023-01-25T02:10:00.393Z,22
2023-01-25T02:15:00.591Z,22
2023-01-25T02:20:00.340Z,22
2023-01-25T02:25:03.206Z,22
2023-01-25T02:30:00.375Z,22
2023-01-25T02:35:00.787Z,22
2023-01-25T02:40:00.335Z,22
2023-01-25T02:45:00.292Z,22
2023-01-25T02:50:00.514Z,23
2023-01-25T02:55:00.466Z,23
2023-01-25T03:00:00.591Z,22
2023-01-25T03:05:00.197Z,23
2023-01-25T03:10:00.260Z,23
2023-01-25T03:15:00.139Z,23
2023-01-25T03:20:00.396Z,23
2023-01-25T03:25:00.380Z,23
2023-01-25T03:30:00.438Z,23
2023-01-25T03:35:00.296Z,23
2023-01-25T03:40:00.372Z,23
2023-01-25T03:45:00.840Z,23
2023-01-25T03:50:00.260Z,23
2023-01-25T03:55:00.084Z,23
2023-01-25T04:00:00.479Z,23
2023-01-25T04:05:00.094Z,23
2023-01-25T04:10:00.021Z,23
2023-01-25T04:15:00.359Z,23
2023-01-25T04:20:01.060Z,23
2023-01-25T04:25:00.366Z,24
2023-01-25T04:30:00.365Z,24
2023-01-25T04:35:00.275Z,24
2023-01-25T04:40:00.072Z,24
2023-01-25T04:45:00.352Z,24
2023-01-25T04:50:00.461Z,24
2023-01-25T04:55:00.140Z,24
2023-01-25T05:00:00.291Z,24
2023-01-25T05:05:00.031Z,24
2023-01-25T05:10:00.574Z,24
2023-01-25T05:15:00.393Z,24
2023-01-25T05:20:00.160Z,24
2023-01-25T05:25:00.021Z,24
2023-01-25T05:30:00.082Z,24
2023-01-25T05:35:01.044Z,24
2023-01-25T05:40:00.283Z,24
2023-01-25T05:45:00.222Z,24
2023-01-25T05:50:00.116Z,24
2023-01-25T05:55:00.587Z,25
2023-01-25T05:59:59.999Z,25
2023-01-25T06:05:00.124Z,25
2023-01-25T06:10:00.265Z,25
2023-01-25T06:15:00.300Z,25
2023-01-25T06:20:00.288Z,25
2023-01-25T06:25:00.119Z,25
2023-01-25T06:30:00.375Z,25
2023-01-25T06:35:00.162Z,25
2023-01-25T06:40:00.415Z,25
2023-01-25T06:44:59.952Z,25
2023-01-25T06:50:00.134Z,26
2023-01-25T06:55:00.172Z,26
2023-01-25T07:00:00.339Z,27
2023-01-25T07:05:00.032Z,27
2023-01-25T07:10:00.103Z,27
2023-01-25T07:15:00.179Z,28
2023-01-25T07:20:00.288Z,28
2023-01-25T07:25:00.142Z,28
2023-01-25T07:30:00.004Z,28
2023-01-25T07:35:00.363Z,28
2023-01-25T07:39:59.881Z,28
2023-01-25T07:44:59.954Z,28
2023-01-25T07:50:00.269Z,28
2023-01-25T07:54:59.893Z,28
2023-01-25T07:59:59.963Z,28
2023-01-25T08:04:59.950Z,28
2023-01-25T08:09:59.897Z,28
2023-01-25T08:15:00.141Z,28
2023-01-25T08:19:59.901Z,28
2023-01-25T08:25:00.169Z,27
2023-01-25T08:30:00.335Z,27
2023-01-25T08:35:00.127Z,27
2023-01-25T08:39:59.856Z,27
2023-01-25T08:45:00.001Z,27
2023-01-25T08:50:00.193Z,28
2023-01-25T08:54:59.944Z,29
2023-01-25T08:59:59.857Z,29
2023-01-25T09:04:59.971Z,29
2023-01-25T09:10:00.140Z,28
2023-01-25T09:15:00.162Z,28
2023-01-25T09:19:59.988Z,28
2023-01-25T09:25:00.026Z,28
2023-01-25T09:30:16.623Z,27
2023-01-25T09:34:59.908Z,26
2023-01-25T09:40:00.186Z,26
2023-01-25T09:45:00.173Z,26
2023-01-25T09:50:00.173Z,26
2023-01-25T09:55:00.673Z,26
2023-01-25T10:00:02.303Z,25
2023-01-25T10:04:59.741Z,26
2023-01-25T10:10:00.024Z,25
2023-01-25T10:15:00.173Z,25
2023-01-25T10:19:59.998Z,25
2023-01-25T10:25:00.118Z,25
2023-01-25T10:30:19.771Z,26
2023-01-25T10:35:00.113Z,26
2023-01-25T10:40:00.243Z,26
2023-01-25T10:45:00.209Z,26
2023-01-25T10:49:59.842Z,26
2023-01-25T10:54:59.886Z,26
2023-01-25T10:59:59.990Z,26
2023-01-25T11:05:14.595Z,26
2023-01-25T11:09:59.878Z,26
2023-01-25T11:15:00.035Z,26
2023-01-25T11:19:59.840Z,26
2023-01-25T11:24:59.814Z,27
2023-01-25T11:30:00.108Z,27
2023-01-25T11:34:59.699Z,27
2023-01-25T11:40:05.787Z,27
2023-01-25T11:44:59.871Z,27
2023-01-25T11:49:59.842Z,27
2023-01-25T11:55:05.975Z,27
2023-01-25T11:59:59.778Z,26
2023-01-25T12:05:06.398Z,27
2023-01-25T12:09:59.883Z,26
2023-01-25T12:14:59.914Z,26
2023-01-25T12:19:59.705Z,26
2023-01-25T12:24:59.750Z,26
2023-01-25T12:29:59.848Z,26
2023-01-25T12:34:59.703Z,26
2023-01-25T12:40:01.256Z,26
2023-01-25T12:44:59.905Z,26
2023-01-25T12:50:08.596Z,26
2023-01-25T12:55:00.410Z,26
2023-01-25T13:00:04.368Z,26
2023-01-25T13:05:02.626Z,26
2023-01-25T13:10:02.023Z,27
2023-01-25T13:14:59.684Z,27
2023-01-25T13:20:00.147Z,27
2023-01-25T13:24:59.833Z,28
2023-01-25T13:29:59.707Z,29
2023-01-25T13:34:59.877Z,29
2023-01-25T13:40:05.988Z,29
2023-01-25T13:44:59.739Z,29
2023-01-25T13:50:01.800Z,28
2023-01-25T13:54:59.950Z,28
2023-01-25T14:00:09.809Z,28
2023-01-25T14:05:00.614Z,28
2023-01-25T14:10:01.060Z,28
2023-01-25T14:14:59.532Z,28
2023-01-25T14:19:59.748Z,27
2023-01-25T14:24:59.740Z,28
2023-01-25T14:29:59.867Z,28
2023-01-25T14:34:59.620Z,28
2023-01-25T14:39:59.624Z,29
2023-01-25T14:45:00.247Z,29
2023-01-25T14:50:36.957Z,28
2023-01-25T14:54:59.469Z,28
2023-01-25T14:59:59.814Z,29
2023-01-25T15:05:04.835Z,29
2023-01-25T15:09:59.486Z,29
2023-01-25T15:14:59.461Z,30
2023-01-25T15:19:59.662Z,30
2023-01-25T15:24:59.563Z,30
2023-01-25T15:29:59.877Z,30
2023-01-25T15:34:59.732Z,30
2023-01-25T15:39:59.531Z,31
2023-01-25T15:44:59.809Z,30
2023-01-25T15:49:59.610Z,30
2023-01-25T15:55:01.950Z,31
2023-01-25T16:00:02.075Z,31
2023-01-25T16:04:59.570Z,31
2023-01-25T16:09:59.460Z,31
2023-01-25T16:14:59.616Z,31
2023-01-25T16:19:59.726Z,31
2023-01-25T16:24:59.564Z,32
2023-01-25T16:29:59.574Z,31
2023-01-25T16:34:59.490Z,31
2023-01-25T16:39:59.515Z,31
2023-01-25T16:44:59.508Z,31
2023-01-25T16:49:59.766Z,32
2023-01-25T16:54:59.865Z,32
2023-01-25T17:00:01.506Z,32
2023-01-25T17:04:59.387Z,32
2023-01-25T17:09:59.408Z,31
2023-01-25T17:14:59.490Z,30
2023-01-25T17:19:59.676Z,30
2023-01-25T17:24:59.683Z,31
2023-01-25T17:29:59.751Z,31
2023-01-25T17:34:59.466Z,31
2023-01-25T17:39:59.661Z,31
2023-01-25T17:44:59.623Z,31
2023-01-25T17:49:59.527Z,31
2023-01-25T17:54:59.423Z,31
2023-01-25T17:59:59.380Z,32
2023-01-25T18:04:59.631Z,31
2023-01-25T18:09:59.930Z,32
2023-01-25T18:14:59.623Z,32
2023-01-25T18:19:59.565Z,32
2023-01-25T18:24:59.568Z,32
2023-01-25T18:30:00.459Z,33
2023-01-25T18:34:59.648Z,33
2023-01-25T18:39:59.478Z,34
2023-01-25T18:44:59.703Z,34
2023-01-25T18:49:59.702Z,35
2023-01-25T18:54:59.728Z,35
2023-01-25T18:59:59.951Z,35
2023-01-25T19:04:59.308Z,35
2023-01-25T19:09:59.573Z,35
2023-01-25T19:14:59.482Z,35
2023-01-25T19:19:59.580Z,34
2023-01-25T19:24:59.648Z,35
2023-01-25T19:29:59.507Z,35
2023-01-25T19:34:59.577Z,36
2023-01-25T19:39:59.294Z,35
2023-01-25T19:44:59.562Z,35
2023-01-25T19:49:59.519Z,36
2023-01-25T19:54:59.656Z,36
2023-01-25T19:59:59.569Z,36
2023-01-25T20:04:59.490Z,36
2023-01-25T20:09:59.205Z,36
2023-01-25T20:14:59.303Z,36
2023-01-25T20:19:59.636Z,35
2023-01-25T20:24:59.225Z,35
2023-01-25T20:29:59.405Z,35
2023-01-25T20:34:59.306Z,36
2023-01-25T20:39:59.504Z,36
2023-01-25T20:44:59.619Z,36
2023-01-25T20:49:59.523Z,36
2023-01-25T20:54:59.378Z,36
2023-01-25T20:59:59.582Z,36
2023-01-25T21:04:59.583Z,35
2023-01-25T21:09:59.293Z,35
2023-01-25T21:14:59.668Z,35
2023-01-25T21:19:59.304Z,35
2023-01-25T21:24:59.300Z,36
2023-01-25T21:29:59.588Z,36
2023-01-25T21:34:59.607Z,35
2023-01-25T21:39:59.280Z,35
2023-01-25T21:44:59.262Z,35
2023-01-25T21:49:59.223Z,34
2023-01-25T21:54:59.312Z,34
2023-01-25T21:59:59.544Z,35
2023-01-25T22:04:59.350Z,35
2023-01-25T22:09:59.521Z,35
2023-01-25T22:14:59.471Z,35
2023-01-25T22:19:59.720Z,35
2023-01-25T22:24:59.339Z,36
2023-01-25T22:29:59.287Z,36
2023-01-25T22:34:59.156Z,36
2023-01-25T22:39:59.455Z,35
2023-01-25T22:44:59.658Z,35
2023-01-25T22:49:59.132Z,35
2023-01-25T22:54:59.154Z,35
2023-01-25T22:59:59.450Z,35
2023-01-25T23:04:59.506Z,34
2023-01-25T23:09:59.243Z,35
2023-01-25T23:14:59.221Z,35
2023-01-25T23:19:59.387Z,35
2023-01-25T23:24:59.387Z,35
2023-01-25T23:29:59.344Z,35
2023-01-25T23:34:59.614Z,35
2023-01-25T23:39:59.201Z,36
2023-01-25T23:44:59.171Z,35
2023-01-25T23:49:59.658Z,35
2023-01-25T23:54:59.288Z,35
2023-01-25T23:59:59.391Z,35
